sensor_id;sensor_type;location;lat;lon;timestamp;temperature;humidity
15286;DHT22;7744;52.172;10.668;2022-11-02T00:01:40;9.80;1.00
15286;DHT22;7744;52.172;10.668;2022-11-02T00:04:07;9.70;1.00
15286;DHT22;7744;52.172;10.668;2022-11-02T00:06:33;9.50;1.00
15286;DHT22;7744;52.172;10.668;2022-11-02T00:08:59;9.30;1.00
15286;DHT22;7744;52.172;10.668;2022-11-02T00:11:24;9.20;1.00
15286;DHT22;7744;52.172;10.668;2022-11-02T00:13:50;9.80;1.00
15286;DHT22;7744;52.172;10.668;2022-11-02T00:16:17;9.20;1.00
15286;DHT22;7744;52.172;10.668;2022-11-02T00:18:46;9.00;1.00
15286;DHT22;7744;52.172;10.668;2022-11-02T00:21:14;8.80;1.00
15286;DHT22;7744;52.172;10.668;2022-11-02T00:23:41;9.70;1.00
15286;DHT22;7744;52.172;10.668;2022-11-02T00:26:07;8.90;1.00
15286;DHT22;7744;52.172;10.668;2022-11-02T00:28:33;9.10;1.00
15286;DHT22;7744;52.172;10.668;2022-11-02T00:30:59;9.00;1.00
15286;DHT22;7744;52.172;10.668;2022-11-02T00:33:25;9.00;1.00
15286;DHT22;7744;52.172;10.668;2022-11-02T00:35:52;9.50;1.00
15286;DHT22;7744;52.172;10.668;2022-11-02T00:38:18;9.80;1.00
15286;DHT22;7744;52.172;10.668;2022-11-02T00:40:44;9.30;1.00
15286;DHT22;7744;52.172;10.668;2022-11-02T00:43:09;9.40;1.00
15286;DHT22;7744;52.172;10.668;2022-11-02T00:45:35;9.50;1.00
15286;DHT22;7744;52.172;10.668;2022-11-02T00:48:00;9.40;1.00
15286;DHT22;7744;52.172;10.668;2022-11-02T00:50:26;10.50;1.00
15286;DHT22;7744;52.172;10.668;2022-11-02T00:52:52;10.00;1.00
15286;DHT22;7744;52.172;10.668;2022-11-02T00:55:17;9.90;1.00
15286;DHT22;7744;52.172;10.668;2022-11-02T00:57:43;10.40;1.00
15286;DHT22;7744;52.172;10.668;2022-11-02T01:00:10;10.20;1.00
15286;DHT22;7744;52.172;10.668;2022-11-02T01:02:37;10.50;1.00
15286;DHT22;7744;52.172;10.668;2022-11-02T01:05:03;10.70;1.00
15286;DHT22;7744;52.172;10.668;2022-11-02T01:07:30;10.70;1.00
15286;DHT22;7744;52.172;10.668;2022-11-02T01:09:55;11.50;1.00
15286;DHT22;7744;52.172;10.668;2022-11-02T01:12:21;11.00;1.00
15286;DHT22;7744;52.172;10.668;2022-11-02T01:14:47;10.90;1.00
15286;DHT22;7744;52.172;10.668;2022-11-02T01:17:14;10.90;1.00
15286;DHT22;7744;52.172;10.668;2022-11-02T01:19:40;11.00;1.00
15286;DHT22;7744;52.172;10.668;2022-11-02T01:22:05;10.80;1.00
15286;DHT22;7744;52.172;10.668;2022-11-02T01:24:31;11.50;1.00
15286;DHT22;7744;52.172;10.668;2022-11-02T01:26:56;10.90;1.00
15286;DHT22;7744;52.172;10.668;2022-11-02T01:29:22;11.00;1.00
15286;DHT22;7744;52.172;10.668;2022-11-02T01:31:48;10.90;1.00
15286;DHT22;7744;52.172;10.668;2022-11-02T01:34:14;11.90;1.00
15286;DHT22;7744;52.172;10.668;2022-11-02T01:36:40;10.80;1.00
15286;DHT22;7744;52.172;10.668;2022-11-02T01:39:06;11.60;1.00
15286;DHT22;7744;52.172;10.668;2022-11-02T01:41:31;10.50;1.00
15286;DHT22;7744;52.172;10.668;2022-11-02T01:43:57;10.40;1.00
15286;DHT22;7744;52.172;10.668;2022-11-02T01:46:37;10.80;1.00
15286;DHT22;7744;52.172;10.668;2022-11-02T01:49:08;10.50;1.00
15286;DHT22;7744;52.172;10.668;2022-11-02T01:51:38;10.70;1.00
15286;DHT22;7744;52.172;10.668;2022-11-02T01:54:13;10.80;1.00
15286;DHT22;7744;52.172;10.668;2022-11-02T01:56:41;10.60;1.00
15286;DHT22;7744;52.172;10.668;2022-11-02T01:59:12;10.70;1.00
15286;DHT22;7744;52.172;10.668;2022-11-02T02:01:39;10.80;1.00
15286;DHT22;7744;52.172;10.668;2022-11-02T02:04:04;10.80;1.00
15286;DHT22;7744;52.172;10.668;2022-11-02T02:06:30;10.90;1.00
15286;DHT22;7744;52.172;10.668;2022-11-02T02:08:59;10.70;1.00
15286;DHT22;7744;52.172;10.668;2022-11-02T02:11:35;10.90;1.00
15286;DHT22;7744;52.172;10.668;2022-11-02T02:14:03;10.80;1.00
15286;DHT22;7744;52.172;10.668;2022-11-02T02:19:02;10.70;1.00
15286;DHT22;7744;52.172;10.668;2022-11-02T02:22:03;10.70;1.00
15286;DHT22;7744;52.172;10.668;2022-11-02T02:25:03;10.80;1.00
15286;DHT22;7744;52.172;10.668;2022-11-02T02:28:15;10.80;1.00
15286;DHT22;7744;52.172;10.668;2022-11-02T02:30:50;10.80;1.00
15286;DHT22;7744;52.172;10.668;2022-11-02T02:36:08;10.70;1.00
15286;DHT22;7744;52.172;10.668;2022-11-02T02:38:48;10.50;1.00
15286;DHT22;7744;52.172;10.668;2022-11-02T02:41:23;10.30;1.00
15286;DHT22;7744;52.172;10.668;2022-11-02T02:43:51;10.30;1.00
15286;DHT22;7744;52.172;10.668;2022-11-02T02:48:44;11.40;1.00
15286;DHT22;7744;52.172;10.668;2022-11-02T02:51:19;10.80;1.00
15286;DHT22;7744;52.172;10.668;2022-11-02T02:53:49;10.10;1.00
15286;DHT22;7744;52.172;10.668;2022-11-02T02:56:20;10.20;1.00
15286;DHT22;7744;52.172;10.668;2022-11-02T02:59:07;10.40;1.00
15286;DHT22;7744;52.172;10.668;2022-11-02T03:01:33;10.30;1.00
15286;DHT22;7744;52.172;10.668;2022-11-02T03:03:59;10.50;1.00
15286;DHT22;7744;52.172;10.668;2022-11-02T03:06:31;10.70;1.00
15286;DHT22;7744;52.172;10.668;2022-11-02T03:09:09;10.30;1.00
15286;DHT22;7744;52.172;10.668;2022-11-02T03:25:20;10.60;1.00
15286;DHT22;7744;52.172;10.668;2022-11-02T03:30:32;10.60;1.00
15286;DHT22;7744;52.172;10.668;2022-11-02T03:33:16;10.70;1.00
15286;DHT22;7744;52.172;10.668;2022-11-02T03:41:08;11.00;1.00
15286;DHT22;7744;52.172;10.668;2022-11-02T03:43:37;11.10;1.00
15286;DHT22;7744;52.172;10.668;2022-11-02T03:46:06;11.20;1.00
15286;DHT22;7744;52.172;10.668;2022-11-02T03:48:41;11.30;1.00
15286;DHT22;7744;52.172;10.668;2022-11-02T03:51:11;11.40;1.00
15286;DHT22;7744;52.172;10.668;2022-11-02T03:53:51;11.40;1.00
15286;DHT22;7744;52.172;10.668;2022-11-02T03:56:37;11.60;1.00
15286;DHT22;7744;52.172;10.668;2022-11-02T03:59:03;11.50;1.00
15286;DHT22;7744;52.172;10.668;2022-11-02T04:01:30;11.60;1.00
15286;DHT22;7744;52.172;10.668;2022-11-02T04:04:03;11.70;1.00
15286;DHT22;7744;52.172;10.668;2022-11-02T04:06:29;11.60;1.00
15286;DHT22;7744;52.172;10.668;2022-11-02T04:08:54;11.60;1.00
15286;DHT22;7744;52.172;10.668;2022-11-02T04:11:20;11.60;1.00
15286;DHT22;7744;52.172;10.668;2022-11-02T04:14:05;11.50;1.00
15286;DHT22;7744;52.172;10.668;2022-11-02T04:16:49;11.70;1.00
15286;DHT22;7744;52.172;10.668;2022-11-02T04:19:34;11.80;1.00
15286;DHT22;7744;52.172;10.668;2022-11-02T04:22:00;11.80;1.00
15286;DHT22;7744;52.172;10.668;2022-11-02T04:24:44;11.70;1.00
15286;DHT22;7744;52.172;10.668;2022-11-02T04:27:28;11.70;1.00
15286;DHT22;7744;52.172;10.668;2022-11-02T04:29:54;11.70;1.00
15286;DHT22;7744;52.172;10.668;2022-11-02T04:32:19;11.60;1.00
15286;DHT22;7744;52.172;10.668;2022-11-02T04:35:04;11.70;1.00
15286;DHT22;7744;52.172;10.668;2022-11-02T04:37:30;11.70;1.00
15286;DHT22;7744;52.172;10.668;2022-11-02T04:40:14;11.80;1.00
15286;DHT22;7744;52.172;10.668;2022-11-02T04:42:39;11.60;1.00
15286;DHT22;7744;52.172;10.668;2022-11-02T04:45:05;11.60;1.00
15286;DHT22;7744;52.172;10.668;2022-11-02T04:47:31;11.50;1.00
15286;DHT22;7744;52.172;10.668;2022-11-02T04:49:57;11.50;1.00
15286;DHT22;7744;52.172;10.668;2022-11-02T04:52:22;11.60;1.00
15286;DHT22;7744;52.172;10.668;2022-11-02T04:54:48;12.10;1.00
15286;DHT22;7744;52.172;10.668;2022-11-02T04:57:13;11.60;1.00
15286;DHT22;7744;52.172;10.668;2022-11-02T04:59:39;12.10;1.00
15286;DHT22;7744;52.172;10.668;2022-11-02T05:02:04;11.80;1.00
15286;DHT22;7744;52.172;10.668;2022-11-02T05:04:30;11.70;1.00
15286;DHT22;7744;52.172;10.668;2022-11-02T05:06:55;11.80;1.00
15286;DHT22;7744;52.172;10.668;2022-11-02T05:09:21;11.80;1.00
15286;DHT22;7744;52.172;10.668;2022-11-02T05:11:47;11.80;1.00
15286;DHT22;7744;52.172;10.668;2022-11-02T05:14:12;12.00;1.00
15286;DHT22;7744;52.172;10.668;2022-11-02T05:16:38;12.10;1.00
15286;DHT22;7744;52.172;10.668;2022-11-02T05:19:03;12.00;1.00
15286;DHT22;7744;52.172;10.668;2022-11-02T05:21:29;12.00;1.00
15286;DHT22;7744;52.172;10.668;2022-11-02T05:23:54;12.00;1.00
15286;DHT22;7744;52.172;10.668;2022-11-02T05:26:20;12.00;1.00
15286;DHT22;7744;52.172;10.668;2022-11-02T05:28:46;11.90;1.00
15286;DHT22;7744;52.172;10.668;2022-11-02T05:31:11;11.70;1.00
15286;DHT22;7744;52.172;10.668;2022-11-02T05:33:37;11.60;1.00
15286;DHT22;7744;52.172;10.668;2022-11-02T05:36:03;11.50;1.00
15286;DHT22;7744;52.172;10.668;2022-11-02T05:38:29;11.50;1.00
15286;DHT22;7744;52.172;10.668;2022-11-02T05:40:58;11.60;1.00
15286;DHT22;7744;52.172;10.668;2022-11-02T05:43:24;11.60;1.00
15286;DHT22;7744;52.172;10.668;2022-11-02T05:46:01;11.30;1.00
15286;DHT22;7744;52.172;10.668;2022-11-02T05:48:30;11.40;1.00
15286;DHT22;7744;52.172;10.668;2022-11-02T05:50:57;11.40;1.00
15286;DHT22;7744;52.172;10.668;2022-11-02T05:53:24;11.30;1.00
15286;DHT22;7744;52.172;10.668;2022-11-02T05:55:51;11.30;1.00
15286;DHT22;7744;52.172;10.668;2022-11-02T05:58:17;11.20;1.00
15286;DHT22;7744;52.172;10.668;2022-11-02T06:00:42;11.20;1.00
15286;DHT22;7744;52.172;10.668;2022-11-02T06:03:08;11.00;1.00
15286;DHT22;7744;52.172;10.668;2022-11-02T06:05:33;11.10;1.00
15286;DHT22;7744;52.172;10.668;2022-11-02T06:08:00;11.00;1.00
15286;DHT22;7744;52.172;10.668;2022-11-02T06:10:29;10.90;1.00
15286;DHT22;7744;52.172;10.668;2022-11-02T06:12:59;11.00;1.00
15286;DHT22;7744;52.172;10.668;2022-11-02T06:15:25;10.90;1.00
15286;DHT22;7744;52.172;10.668;2022-11-02T06:17:50;11.10;1.00
15286;DHT22;7744;52.172;10.668;2022-11-02T06:20:17;11.30;1.00
15286;DHT22;7744;52.172;10.668;2022-11-02T06:22:43;10.80;1.00
15286;DHT22;7744;52.172;10.668;2022-11-02T06:25:09;11.00;1.00
15286;DHT22;7744;52.172;10.668;2022-11-02T06:27:35;10.90;1.00
15286;DHT22;7744;52.172;10.668;2022-11-02T06:30:01;11.10;1.00
15286;DHT22;7744;52.172;10.668;2022-11-02T06:32:27;10.90;1.00
15286;DHT22;7744;52.172;10.668;2022-11-02T06:34:52;11.00;1.00
15286;DHT22;7744;52.172;10.668;2022-11-02T06:37:18;11.20;1.00
15286;DHT22;7744;52.172;10.668;2022-11-02T06:39:44;10.80;1.00
15286;DHT22;7744;52.172;10.668;2022-11-02T06:42:09;11.80;1.00
15286;DHT22;7744;52.172;10.668;2022-11-02T06:44:35;11.00;1.00
15286;DHT22;7744;52.172;10.668;2022-11-02T06:47:00;11.00;1.00
15286;DHT22;7744;52.172;10.668;2022-11-02T06:49:26;11.00;1.00
15286;DHT22;7744;52.172;10.668;2022-11-02T06:51:52;11.70;1.00
15286;DHT22;7744;52.172;10.668;2022-11-02T06:54:18;11.10;1.00
15286;DHT22;7744;52.172;10.668;2022-11-02T06:56:43;11.00;1.00
15286;DHT22;7744;52.172;10.668;2022-11-02T06:59:09;11.10;1.00
15286;DHT22;7744;52.172;10.668;2022-11-02T07:01:34;11.60;1.00
15286;DHT22;7744;52.172;10.668;2022-11-02T07:04:01;11.00;1.00
15286;DHT22;7744;52.172;10.668;2022-11-02T07:06:27;10.90;1.00
15286;DHT22;7744;52.172;10.668;2022-11-02T07:08:53;11.30;1.00
15286;DHT22;7744;52.172;10.668;2022-11-02T07:11:19;11.00;1.00
15286;DHT22;7744;52.172;10.668;2022-11-02T07:13:44;11.10;1.00
15286;DHT22;7744;52.172;10.668;2022-11-02T07:16:10;11.00;1.00
15286;DHT22;7744;52.172;10.668;2022-11-02T07:18:36;11.10;1.00
15286;DHT22;7744;52.172;10.668;2022-11-02T07:21:02;11.30;1.00
15286;DHT22;7744;52.172;10.668;2022-11-02T07:23:28;11.60;1.00
15286;DHT22;7744;52.172;10.668;2022-11-02T07:25:53;11.10;1.00
15286;DHT22;7744;52.172;10.668;2022-11-02T07:28:19;11.20;1.00
15286;DHT22;7744;52.172;10.668;2022-11-02T07:30:45;11.20;1.00
15286;DHT22;7744;52.172;10.668;2022-11-02T07:33:11;11.30;1.00
15286;DHT22;7744;52.172;10.668;2022-11-02T07:35:36;11.20;1.00
15286;DHT22;7744;52.172;10.668;2022-11-02T07:38:04;11.30;1.00
15286;DHT22;7744;52.172;10.668;2022-11-02T07:40:32;11.20;1.00
15286;DHT22;7744;52.172;10.668;2022-11-02T07:42:58;11.30;1.00
15286;DHT22;7744;52.172;10.668;2022-11-02T07:45:55;11.40;1.00
15286;DHT22;7744;52.172;10.668;2022-11-02T07:48:21;11.10;1.00
15286;DHT22;7744;52.172;10.668;2022-11-02T07:50:47;11.20;1.00
15286;DHT22;7744;52.172;10.668;2022-11-02T07:53:13;11.50;1.00
15286;DHT22;7744;52.172;10.668;2022-11-02T07:55:39;11.70;1.00
15286;DHT22;7744;52.172;10.668;2022-11-02T07:58:07;11.40;1.00
15286;DHT22;7744;52.172;10.668;2022-11-02T08:00:36;11.40;1.00
15286;DHT22;7744;52.172;10.668;2022-11-02T08:03:03;11.60;1.00
15286;DHT22;7744;52.172;10.668;2022-11-02T08:05:30;12.00;1.00
15286;DHT22;7744;52.172;10.668;2022-11-02T08:07:57;11.70;1.00
15286;DHT22;7744;52.172;10.668;2022-11-02T08:10:24;11.70;1.00
15286;DHT22;7744;52.172;10.668;2022-11-02T08:12:50;11.80;1.00
15286;DHT22;7744;52.172;10.668;2022-11-02T08:15:16;12.40;1.00
15286;DHT22;7744;52.172;10.668;2022-11-02T08:17:41;11.90;1.00
15286;DHT22;7744;52.172;10.668;2022-11-02T08:20:07;12.10;1.00
15286;DHT22;7744;52.172;10.668;2022-11-02T08:22:40;12.30;1.00
15286;DHT22;7744;52.172;10.668;2022-11-02T08:25:06;12.50;1.00
15286;DHT22;7744;52.172;10.668;2022-11-02T08:27:32;12.70;1.00
15286;DHT22;7744;52.172;10.668;2022-11-02T08:29:58;12.90;1.00
15286;DHT22;7744;52.172;10.668;2022-11-02T08:32:23;12.90;1.00
15286;DHT22;7744;52.172;10.668;2022-11-02T08:34:49;13.10;1.00
15286;DHT22;7744;52.172;10.668;2022-11-02T08:37:14;13.10;1.00
15286;DHT22;7744;52.172;10.668;2022-11-02T08:39:40;13.20;1.00
15286;DHT22;7744;52.172;10.668;2022-11-02T08:42:06;13.30;1.00
15286;DHT22;7744;52.172;10.668;2022-11-02T08:44:31;13.40;1.00
15286;DHT22;7744;52.172;10.668;2022-11-02T08:46:57;13.30;1.00
15286;DHT22;7744;52.172;10.668;2022-11-02T08:49:23;13.40;1.00
15286;DHT22;7744;52.172;10.668;2022-11-02T08:51:50;13.40;1.00
15286;DHT22;7744;52.172;10.668;2022-11-02T08:54:15;13.30;1.00
15286;DHT22;7744;52.172;10.668;2022-11-02T08:56:41;13.20;1.00
15286;DHT22;7744;52.172;10.668;2022-11-02T08:59:07;13.10;1.00
15286;DHT22;7744;52.172;10.668;2022-11-02T09:01:33;13.40;1.00
15286;DHT22;7744;52.172;10.668;2022-11-02T09:03:58;12.90;1.00
15286;DHT22;7744;52.172;10.668;2022-11-02T09:06:24;12.80;1.00
15286;DHT22;7744;52.172;10.668;2022-11-02T09:08:49;12.90;1.00
15286;DHT22;7744;52.172;10.668;2022-11-02T09:11:15;12.90;1.00
15286;DHT22;7744;52.172;10.668;2022-11-02T09:13:41;13.10;1.00
15286;DHT22;7744;52.172;10.668;2022-11-02T09:16:07;13.20;1.00
15286;DHT22;7744;52.172;10.668;2022-11-02T09:18:32;13.30;1.00
15286;DHT22;7744;52.172;10.668;2022-11-02T09:21:02;13.30;1.00
15286;DHT22;7744;52.172;10.668;2022-11-02T09:23:29;13.40;1.00
15286;DHT22;7744;52.172;10.668;2022-11-02T09:25:55;13.50;1.00
15286;DHT22;7744;52.172;10.668;2022-11-02T09:28:21;13.60;1.00
15286;DHT22;7744;52.172;10.668;2022-11-02T09:30:47;13.30;1.00
15286;DHT22;7744;52.172;10.668;2022-11-02T09:33:13;13.40;1.00
15286;DHT22;7744;52.172;10.668;2022-11-02T09:35:41;13.30;1.00
15286;DHT22;7744;52.172;10.668;2022-11-02T09:38:07;13.30;1.00
15286;DHT22;7744;52.172;10.668;2022-11-02T09:41:20;13.60;1.00
15286;DHT22;7744;52.172;10.668;2022-11-02T09:48:40;13.40;1.00
15286;DHT22;7744;52.172;10.668;2022-11-02T09:51:11;13.50;1.00
15286;DHT22;7744;52.172;10.668;2022-11-02T09:56:16;13.50;1.00
15286;DHT22;7744;52.172;10.668;2022-11-02T09:59:31;13.60;1.00
15286;DHT22;7744;52.172;10.668;2022-11-02T10:02:02;13.50;1.00
15286;DHT22;7744;52.172;10.668;2022-11-02T10:04:58;13.40;1.00
15286;DHT22;7744;52.172;10.668;2022-11-02T10:07:28;13.30;1.00
15286;DHT22;7744;52.172;10.668;2022-11-02T10:10:04;13.30;1.00
15286;DHT22;7744;52.172;10.668;2022-11-02T10:15:18;13.60;1.00
15286;DHT22;7744;52.172;10.668;2022-11-02T10:17:46;13.70;1.00
15286;DHT22;7744;52.172;10.668;2022-11-02T10:20:25;13.90;1.00
15286;DHT22;7744;52.172;10.668;2022-11-02T10:22:56;14.00;1.00
15286;DHT22;7744;52.172;10.668;2022-11-02T10:25:23;14.00;1.00
15286;DHT22;7744;52.172;10.668;2022-11-02T10:27:53;14.00;1.00
15286;DHT22;7744;52.172;10.668;2022-11-02T10:30:21;14.00;1.00
15286;DHT22;7744;52.172;10.668;2022-11-02T10:32:50;14.10;1.00
15286;DHT22;7744;52.172;10.668;2022-11-02T10:51:18;14.20;1.00
15286;DHT22;7744;52.172;10.668;2022-11-02T10:53:48;14.20;1.00
15286;DHT22;7744;52.172;10.668;2022-11-02T11:01:27;14.20;1.00
15286;DHT22;7744;52.172;10.668;2022-11-02T11:03:59;14.20;1.00
15286;DHT22;7744;52.172;10.668;2022-11-02T11:06:45;14.30;1.00
15286;DHT22;7744;52.172;10.668;2022-11-02T11:12:01;14.80;1.00
15286;DHT22;7744;52.172;10.668;2022-11-02T11:14:29;14.80;1.00
15286;DHT22;7744;52.172;10.668;2022-11-02T11:16:59;15.00;1.00
15286;DHT22;7744;52.172;10.668;2022-11-02T11:19:39;15.10;1.00
15286;DHT22;7744;52.172;10.668;2022-11-02T11:22:25;14.90;1.00
15286;DHT22;7744;52.172;10.668;2022-11-02T11:24:52;14.70;1.00
15286;DHT22;7744;52.172;10.668;2022-11-02T11:27:21;14.60;1.00
15286;DHT22;7744;52.172;10.668;2022-11-02T11:29:50;14.60;1.00
15286;DHT22;7744;52.172;10.668;2022-11-02T11:32:35;14.60;1.00
15286;DHT22;7744;52.172;10.668;2022-11-02T11:35:04;14.60;1.00
15286;DHT22;7744;52.172;10.668;2022-11-02T11:37:30;14.50;1.00
15286;DHT22;7744;52.172;10.668;2022-11-02T11:40:05;14.40;1.00
15286;DHT22;7744;52.172;10.668;2022-11-02T11:42:41;14.20;1.00
15286;DHT22;7744;52.172;10.668;2022-11-02T11:45:18;14.20;1.00
15286;DHT22;7744;52.172;10.668;2022-11-02T11:47:45;14.20;1.00
15286;DHT22;7744;52.172;10.668;2022-11-02T11:50:16;14.20;1.00
15286;DHT22;7744;52.172;10.668;2022-11-02T11:52:42;14.20;1.00
15286;DHT22;7744;52.172;10.668;2022-11-02T11:55:24;14.30;1.00
15286;DHT22;7744;52.172;10.668;2022-11-02T11:58:23;14.10;1.00
15286;DHT22;7744;52.172;10.668;2022-11-02T12:01:05;14.20;1.00
15286;DHT22;7744;52.172;10.668;2022-11-02T12:03:32;14.30;1.00
15286;DHT22;7744;52.172;10.668;2022-11-02T12:08:44;14.00;1.00
15286;DHT22;7744;52.172;10.668;2022-11-02T12:17:15;13.80;1.00
15286;DHT22;7744;52.172;10.668;2022-11-02T12:30:58;14.20;1.00
15286;DHT22;7744;52.172;10.668;2022-11-02T12:33:29;14.30;1.00
15286;DHT22;7744;52.172;10.668;2022-11-02T12:36:17;14.40;1.00
15286;DHT22;7744;52.172;10.668;2022-11-02T12:41:36;14.40;1.00
15286;DHT22;7744;52.172;10.668;2022-11-02T12:50:15;14.10;1.00
15286;DHT22;7744;52.172;10.668;2022-11-02T12:55:35;14.10;1.00
15286;DHT22;7744;52.172;10.668;2022-11-02T12:58:04;13.90;1.00
15286;DHT22;7744;52.172;10.668;2022-11-02T13:00:32;13.80;1.00
15286;DHT22;7744;52.172;10.668;2022-11-02T13:06:11;13.50;1.00
15286;DHT22;7744;52.172;10.668;2022-11-02T13:09:04;13.50;1.00
15286;DHT22;7744;52.172;10.668;2022-11-02T13:11:41;13.20;1.00
15286;DHT22;7744;52.172;10.668;2022-11-02T13:14:12;13.20;1.00
15286;DHT22;7744;52.172;10.668;2022-11-02T13:16:48;13.30;1.00
15286;DHT22;7744;52.172;10.668;2022-11-02T13:19:20;13.10;1.00
15286;DHT22;7744;52.172;10.668;2022-11-02T13:21:53;13.10;1.00
15286;DHT22;7744;52.172;10.668;2022-11-02T13:24:26;13.20;1.00
15286;DHT22;7744;52.172;10.668;2022-11-02T13:26:54;13.30;1.00
15286;DHT22;7744;52.172;10.668;2022-11-02T13:31:59;13.40;1.00
15286;DHT22;7744;52.172;10.668;2022-11-02T13:34:35;13.50;1.00
15286;DHT22;7744;52.172;10.668;2022-11-02T13:37:05;13.60;1.00
15286;DHT22;7744;52.172;10.668;2022-11-02T13:39:39;13.60;1.00
15286;DHT22;7744;52.172;10.668;2022-11-02T13:42:23;13.60;1.00
15286;DHT22;7744;52.172;10.668;2022-11-02T13:50:43;13.60;1.00
15286;DHT22;7744;52.172;10.668;2022-11-02T13:53:22;13.60;1.00
15286;DHT22;7744;52.172;10.668;2022-11-02T13:55:59;13.60;1.00
15286;DHT22;7744;52.172;10.668;2022-11-02T14:00:53;13.50;1.00
15286;DHT22;7744;52.172;10.668;2022-11-02T14:03:47;13.60;1.00
15286;DHT22;7744;52.172;10.668;2022-11-02T14:06:16;13.60;1.00
15286;DHT22;7744;52.172;10.668;2022-11-02T14:08:54;13.70;1.00
15286;DHT22;7744;52.172;10.668;2022-11-02T14:14:14;13.50;1.00
15286;DHT22;7744;52.172;10.668;2022-11-02T14:40:30;13.40;1.00
15286;DHT22;7744;52.172;10.668;2022-11-02T14:48:18;13.10;1.00
15286;DHT22;7744;52.172;10.668;2022-11-02T14:50:56;13.00;1.00
15286;DHT22;7744;52.172;10.668;2022-11-02T14:53:25;12.80;1.00
15286;DHT22;7744;52.172;10.668;2022-11-02T14:55:53;12.80;1.00
15286;DHT22;7744;52.172;10.668;2022-11-02T14:58:23;12.80;1.00
15286;DHT22;7744;52.172;10.668;2022-11-02T15:08:30;12.50;1.00
15286;DHT22;7744;52.172;10.668;2022-11-02T15:10:56;12.40;1.00
15286;DHT22;7744;52.172;10.668;2022-11-02T15:13:31;12.40;1.00
15286;DHT22;7744;52.172;10.668;2022-11-02T15:29:37;11.80;1.00
15286;DHT22;7744;52.172;10.668;2022-11-02T15:32:03;11.80;1.00
15286;DHT22;7744;52.172;10.668;2022-11-02T15:34:36;11.60;1.00
15286;DHT22;7744;52.172;10.668;2022-11-02T15:37:04;11.50;1.00
15286;DHT22;7744;52.172;10.668;2022-11-02T15:39:30;11.50;1.00
15286;DHT22;7744;52.172;10.668;2022-11-02T15:42:09;11.20;1.00
15286;DHT22;7744;52.172;10.668;2022-11-02T15:50:13;10.80;1.00
15286;DHT22;7744;52.172;10.668;2022-11-02T15:52:55;10.70;1.00
15286;DHT22;7744;52.172;10.668;2022-11-02T16:01:21;10.30;1.00
15286;DHT22;7744;52.172;10.668;2022-11-02T16:03:51;10.20;1.00
15286;DHT22;7744;52.172;10.668;2022-11-02T16:06:29;10.10;1.00
15286;DHT22;7744;52.172;10.668;2022-11-02T16:08:58;9.90;1.00
15286;DHT22;7744;52.172;10.668;2022-11-02T16:11:25;9.90;1.00
15286;DHT22;7744;52.172;10.668;2022-11-02T16:13:51;9.80;1.00
15286;DHT22;7744;52.172;10.668;2022-11-02T16:16:18;9.70;1.00
15286;DHT22;7744;52.172;10.668;2022-11-02T16:18:48;9.60;1.00
15286;DHT22;7744;52.172;10.668;2022-11-02T16:21:18;9.60;1.00
15286;DHT22;7744;52.172;10.668;2022-11-02T16:23:56;9.60;1.00
15286;DHT22;7744;52.172;10.668;2022-11-02T16:26:24;9.50;1.00
15286;DHT22;7744;52.172;10.668;2022-11-02T16:28:56;9.40;1.00
15286;DHT22;7744;52.172;10.668;2022-11-02T16:31:27;9.40;1.00
15286;DHT22;7744;52.172;10.668;2022-11-02T16:34:01;9.30;1.00
15286;DHT22;7744;52.172;10.668;2022-11-02T16:36:29;9.10;1.00
15286;DHT22;7744;52.172;10.668;2022-11-02T16:41:34;9.00;1.00
15286;DHT22;7744;52.172;10.668;2022-11-02T16:44:07;8.90;1.00
15286;DHT22;7744;52.172;10.668;2022-11-02T16:46:48;9.10;1.00
15286;DHT22;7744;52.172;10.668;2022-11-02T16:49:22;8.70;1.00
15286;DHT22;7744;52.172;10.668;2022-11-02T16:51:59;8.70;1.00
15286;DHT22;7744;52.172;10.668;2022-11-02T16:57:03;8.50;1.00
15286;DHT22;7744;52.172;10.668;2022-11-02T16:59:29;8.40;1.00
15286;DHT22;7744;52.172;10.668;2022-11-02T17:01:59;8.40;1.00
15286;DHT22;7744;52.172;10.668;2022-11-02T17:04:28;8.30;1.00
15286;DHT22;7744;52.172;10.668;2022-11-02T17:06:59;8.30;1.00
15286;DHT22;7744;52.172;10.668;2022-11-02T17:09:33;8.00;1.00
15286;DHT22;7744;52.172;10.668;2022-11-02T17:12:04;7.90;1.00
15286;DHT22;7744;52.172;10.668;2022-11-02T17:14:31;7.90;1.00
15286;DHT22;7744;52.172;10.668;2022-11-02T17:20:07;7.70;1.00
15286;DHT22;7744;52.172;10.668;2022-11-02T17:25:20;7.50;1.00
15286;DHT22;7744;52.172;10.668;2022-11-02T17:27:47;7.40;1.00
15286;DHT22;7744;52.172;10.668;2022-11-02T17:30:43;7.40;1.00
15286;DHT22;7744;52.172;10.668;2022-11-02T17:33:22;7.40;1.00
15286;DHT22;7744;52.172;10.668;2022-11-02T17:35:51;8.20;1.00
15286;DHT22;7744;52.172;10.668;2022-11-02T17:38:18;7.30;1.00
15286;DHT22;7744;52.172;10.668;2022-11-02T17:40:44;7.20;1.00
15286;DHT22;7744;52.172;10.668;2022-11-02T17:43:17;7.90;1.00
15286;DHT22;7744;52.172;10.668;2022-11-02T17:45:42;7.10;1.00
15286;DHT22;7744;52.172;10.668;2022-11-02T17:48:08;7.10;1.00
15286;DHT22;7744;52.172;10.668;2022-11-02T17:50:36;7.10;1.00
15286;DHT22;7744;52.172;10.668;2022-11-02T17:53:03;7.10;1.00
15286;DHT22;7744;52.172;10.668;2022-11-02T17:55:32;7.20;1.00
15286;DHT22;7744;52.172;10.668;2022-11-02T17:57:58;7.00;1.00
15286;DHT22;7744;52.172;10.668;2022-11-02T18:00:24;7.00;1.00
15286;DHT22;7744;52.172;10.668;2022-11-02T18:02:56;6.90;1.00
15286;DHT22;7744;52.172;10.668;2022-11-02T18:05:26;7.00;1.00
15286;DHT22;7744;52.172;10.668;2022-11-02T18:07:53;7.00;1.00
15286;DHT22;7744;52.172;10.668;2022-11-02T18:10:20;6.90;1.00
15286;DHT22;7744;52.172;10.668;2022-11-02T18:12:46;7.90;1.00
15286;DHT22;7744;52.172;10.668;2022-11-02T18:15:18;6.90;1.00
15286;DHT22;7744;52.172;10.668;2022-11-02T18:17:44;7.10;1.00
15286;DHT22;7744;52.172;10.668;2022-11-02T18:20:10;7.10;1.00
15286;DHT22;7744;52.172;10.668;2022-11-02T18:22:37;7.00;1.00
15286;DHT22;7744;52.172;10.668;2022-11-02T18:25:04;6.80;1.00
15286;DHT22;7744;52.172;10.668;2022-11-02T18:27:30;6.80;1.00
15286;DHT22;7744;52.172;10.668;2022-11-02T18:29:56;6.80;1.00
15286;DHT22;7744;52.172;10.668;2022-11-02T18:32:21;6.70;1.00
15286;DHT22;7744;52.172;10.668;2022-11-02T18:34:48;6.80;1.00
15286;DHT22;7744;52.172;10.668;2022-11-02T18:37:14;6.70;1.00
15286;DHT22;7744;52.172;10.668;2022-11-02T18:39:39;6.70;1.00
15286;DHT22;7744;52.172;10.668;2022-11-02T18:42:05;6.70;1.00
15286;DHT22;7744;52.172;10.668;2022-11-02T18:44:30;6.80;1.00
15286;DHT22;7744;52.172;10.668;2022-11-02T18:46:56;6.80;1.00
15286;DHT22;7744;52.172;10.668;2022-11-02T18:49:24;6.80;1.00
15286;DHT22;7744;52.172;10.668;2022-11-02T18:51:50;6.80;1.00
15286;DHT22;7744;52.172;10.668;2022-11-02T18:54:16;6.70;1.00
15286;DHT22;7744;52.172;10.668;2022-11-02T18:56:42;7.30;1.00
15286;DHT22;7744;52.172;10.668;2022-11-02T18:59:08;6.60;1.00
15286;DHT22;7744;52.172;10.668;2022-11-02T19:01:34;6.50;1.00
15286;DHT22;7744;52.172;10.668;2022-11-02T19:04:00;6.60;1.00
15286;DHT22;7744;52.172;10.668;2022-11-02T19:06:29;6.50;1.00
15286;DHT22;7744;52.172;10.668;2022-11-02T19:09:15;6.50;1.00
15286;DHT22;7744;52.172;10.668;2022-11-02T19:12:00;6.50;1.00